Time;durP1;ratioP1;P1;durP2;ratioP2;P2;SDS_P1;SDS_P2;PMS_P1;PMS_P2;Temp;Humidity;BMP_temperature;BMP_pressure;BME280_temperature;BME280_humidity;BME280_pressure;Samples;Min_cycle;Max_cycle;Signal;HPM_P1;HPM_P2
2022/12/07 05:16:53;;;;;;;12.00;7.03;;;;;;;1.56;100.00;100179.87;5559343;32;175486;-87
2022/12/07 05:19:56;;;;;;;11.40;6.30;;;;;;;1.60;100.00;100184.16;5544437;32;32568;-87
2022/12/07 05:22:59;;;;;;;8.05;5.90;;;;;;;1.68;100.00;100181.44;5556488;32;33985;-87
2022/12/07 05:26:02;;;;;;;7.82;5.25;;;;;;;1.76;100.00;100179.53;5545315;32;33780;-86
2022/12/07 05:29:05;;;;;;;9.98;5.80;;;;;;;1.91;100.00;100181.03;5547132;32;34391;-87
2022/12/07 05:32:08;;;;;;;8.32;5.97;;;;;;;1.96;100.00;100181.84;5544792;32;33755;-87
2022/12/07 05:35:10;;;;;;;7.93;5.65;;;;;;;1.97;100.00;100182.72;5545532;32;33606;-87
2022/12/07 05:38:13;;;;;;;8.88;6.12;;;;;;;2.07;100.00;100184.28;5545595;32;34595;-87
2022/12/07 05:44:41;;;;;;;8.80;5.70;;;;;;;2.14;100.00;100190.25;5549552;32;33521;-87
2022/12/07 05:47:43;;;;;;;8.98;6.05;;;;;;;2.05;100.00;100188.66;5552001;32;33611;-87
2022/12/07 05:50:51;;;;;;;9.90;6.55;;;;;;;2.00;100.00;100195.72;5550834;32;33952;-87
2022/12/07 05:53:53;;;;;;;9.43;6.43;;;;;;;2.06;100.00;100193.00;5544855;32;35219;-91
2022/12/07 05:56:56;;;;;;;10.77;6.50;;;;;;;2.05;100.00;100190.44;5544104;32;34295;-91
2022/12/07 05:59:59;;;;;;;9.95;6.30;;;;;;;2.05;100.00;100196.50;5544357;32;34479;-91
2022/12/07 06:03:02;;;;;;;9.63;6.70;;;;;;;2.08;100.00;100203.44;5542955;32;34210;-91
2022/12/07 06:06:05;;;;;;;6.80;4.47;;;;;;;2.11;100.00;100203.41;5534050;32;32704;-87
2022/12/07 06:09:08;;;;;;;11.18;6.07;;;;;;;2.11;100.00;100201.62;5528421;32;33247;-87
2022/12/07 06:15:36;;;;;;;9.35;6.57;;;;;;;2.23;100.00;100191.84;5535543;32;34561;-87
2022/12/07 06:18:39;;;;;;;10.13;6.95;;;;;;;2.28;100.00;100203.09;5542381;32;34161;-87
2022/12/07 06:21:42;;;;;;;10.13;6.50;;;;;;;2.38;100.00;100201.19;5529768;32;33992;-87
2022/12/07 06:24:45;;;;;;;9.57;6.47;;;;;;;2.35;100.00;100199.47;5534858;32;35325;-87
2022/12/07 06:27:48;;;;;;;8.75;6.68;;;;;;;2.63;100.00;100201.59;5525070;32;34809;-87
2022/12/07 06:31:01;;;;;;;11.70;6.80;;;;;;;2.58;100.00;100203.41;5515022;32;34593;-87
2022/12/07 06:34:15;;;;;;;11.25;7.75;;;;;;;2.82;100.00;100199.44;5522826;32;34793;-87
2022/12/07 06:37:18;;;;;;;11.18;7.75;;;;;;;2.81;100.00;100196.84;5514655;32;32463;-87
2022/12/07 06:40:21;;;;;;;11.52;7.57;;;;;;;2.80;100.00;100205.59;5519183;32;33591;-86
2022/12/07 06:43:24;;;;;;;12.23;8.68;;;;;;;2.75;100.00;100207.44;5528906;32;34058;-87
2022/12/07 06:46:26;;;;;;;13.00;8.23;;;;;;;2.67;100.00;100213.69;5520679;32;34068;-87
2022/12/07 06:49:29;;;;;;;22.77;12.48;;;;;;;2.65;100.00;100218.12;5520069;32;33316;-87
2022/12/07 06:52:32;;;;;;;25.12;14.57;;;;;;;2.47;100.00;100221.09;5528450;32;34159;-87
2022/12/07 06:55:34;;;;;;;183.43;117.55;;;;;;;2.24;100.00;100217.13;5533340;32;35252;-87
2022/12/07 06:58:40;;;;;;;60.38;28.85;;;;;;;2.19;100.00;100225.06;5524192;32;33890;-87
2022/12/07 07:01:42;;;;;;;19.75;11.90;;;;;;;2.13;100.00;100231.28;5520216;32;32630;-86
2022/12/07 07:04:45;;;;;;;28.75;17.62;;;;;;;2.15;100.00;100226.00;5528062;32;33594;-86
2022/12/07 07:07:51;;;;;;;32.08;19.00;;;;;;;2.23;100.00;100228.50;5526914;32;33632;-87
2022/12/07 07:11:13;;;;;;;33.35;19.67;;;;;;;2.14;100.00;100225.16;5526643;32;32834;-87
2022/12/07 07:14:18;;;;;;;33.40;18.80;;;;;;;2.04;100.00;100225.31;5534078;32;34133;-87
2022/12/07 07:17:24;;;;;;;29.27;18.80;;;;;;;2.08;100.00;100220.03;5532181;32;34633;-87
2022/12/07 07:20:27;;;;;;;33.22;20.08;;;;;;;2.01;100.00;100223.63;5527358;32;33803;-86
2022/12/07 07:23:29;;;;;;;38.55;20.35;;;;;;;2.05;100.00;100225.28;5547696;32;35121;-87
2022/12/07 07:26:32;;;;;;;33.03;19.48;;;;;;;1.96;100.00;100221.06;5525237;32;34874;-87
2022/12/07 07:29:35;;;;;;;35.10;19.08;;;;;;;2.00;100.00;100228.00;5523165;32;35213;-88
2022/12/07 07:32:38;;;;;;;38.10;20.60;;;;;;;2.23;100.00;100225.88;5526882;32;35397;-86
2022/12/07 07:35:41;;;;;;;33.95;20.90;;;;;;;2.07;100.00;100220.03;5530895;32;34284;-86
2022/12/07 07:38:44;;;;;;;36.58;21.30;;;;;;;2.17;100.00;100234.72;5519842;32;34017;-85
2022/12/07 07:41:49;;;;;;;33.75;20.58;;;;;;;2.02;100.00;100223.59;5524398;32;32516;-85
2022/12/07 07:44:54;;;;;;;38.33;21.37;;;;;;;2.09;100.00;100221.75;5515579;32;32396;-87
2022/12/07 07:47:57;;;;;;;33.60;20.83;;;;;;;2.14;100.00;100222.53;5520540;32;34418;-85
2022/12/07 07:51:00;;;;;;;34.15;20.77;;;;;;;2.17;100.00;100224.25;5518408;32;33913;-85
2022/12/07 07:54:03;;;;;;;32.70;21.05;;;;;;;2.25;100.00;100219.72;5525759;32;32755;-86
2022/12/07 07:57:05;;;;;;;35.90;21.23;;;;;;;2.36;100.00;100222.12;5530469;32;34790;-86
2022/12/07 08:00:12;;;;;;;35.83;22.27;;;;;;;2.35;100.00;100227.41;5519755;32;34403;-86
2022/12/07 08:03:15;;;;;;;40.50;23.65;;;;;;;2.33;100.00;100226.56;5517949;32;34562;-87
2022/12/07 08:06:17;;;;;;;42.60;24.63;;;;;;;2.31;100.00;100229.22;5516613;32;32769;-86
2022/12/07 08:09:20;;;;;;;39.63;23.05;;;;;;;2.52;100.00;100234.97;5514193;32;33338;-87
2022/12/07 08:12:23;;;;;;;41.10;22.98;;;;;;;2.56;100.00;100228.75;5526166;32;33893;-86
2022/12/07 08:15:30;;;;;;;76.95;30.65;;;;;;;2.73;100.00;100223.22;5520186;32;34299;-86
2022/12/07 08:18:40;;;;;;;37.13;23.50;;;;;;;2.87;100.00;100225.53;5513158;32;34203;-86
2022/12/07 08:21:43;;;;;;;39.50;23.87;;;;;;;3.12;100.00;100232.03;5526340;32;34556;-86
2022/12/07 08:24:45;;;;;;;40.97;24.52;;;;;;;3.29;100.00;100236.91;5520498;32;33789;-86
2022/12/07 08:27:50;;;;;;;41.28;24.67;;;;;;;3.24;100.00;100247.50;5526256;32;34689;-86
2022/12/07 08:30:59;;;;;;;41.10;24.27;;;;;;;3.36;100.00;100247.25;5518041;32;34279;-86
2022/12/07 08:34:02;;;;;;;39.85;24.42;;;;;;;3.22;100.00;100246.69;5515723;32;34038;-86
2022/12/07 08:37:04;;;;;;;36.72;23.30;;;;;;;3.49;100.00;100253.09;5531297;32;34600;-86
2022/12/07 08:40:10;;;;;;;34.95;22.02;;;;;;;3.82;100.00;100251.47;5527747;32;34181;-86
2022/12/07 08:43:12;;;;;;;37.33;22.13;;;;;;;3.98;100.00;100251.97;5514708;32;34597;-86
2022/12/07 08:46:21;;;;;;;39.80;21.77;;;;;;;4.24;100.00;100253.97;5519169;32;33138;-87
2022/12/07 08:49:34;;;;;;;30.85;20.05;;;;;;;4.31;100.00;100249.41;5519681;32;34054;-87
2022/12/07 08:52:37;;;;;;;32.50;20.23;;;;;;;4.50;100.00;100260.28;5520022;32;35098;-87
2022/12/07 08:55:40;;;;;;;24.77;16.60;;;;;;;4.68;100.00;100258.94;5509777;32;34296;-87
2022/12/07 08:58:43;;;;;;;25.02;15.65;;;;;;;4.98;100.00;100256.34;5525255;32;34201;-86
2022/12/07 09:01:46;;;;;;;22.15;14.65;;;;;;;5.01;100.00;100260.66;5521728;32;33686;-86
2022/12/07 09:04:49;;;;;;;20.88;13.60;;;;;;;4.82;100.00;100257.69;5518064;32;34403;-86
2022/12/07 09:07:57;;;;;;;20.12;12.70;;;;;;;4.72;100.00;100259.69;5523171;32;34804;-88
2022/12/07 09:11:00;;;;;;;19.67;13.02;;;;;;;5.24;100.00;100261.78;5513319;32;34142;-87
2022/12/07 09:14:02;;;;;;;18.37;12.25;;;;;;;5.22;100.00;100251.28;5511830;32;34555;-87
2022/12/07 09:17:10;;;;;;;17.33;11.73;;;;;;;5.16;100.00;100254.09;5513446;32;34248;-87
2022/12/07 09:20:13;;;;;;;18.87;12.50;;;;;;;5.43;100.00;100248.91;5515296;32;34111;-90
2022/12/07 09:23:18;;;;;;;19.48;12.65;;;;;;;5.43;100.00;100243.66;5508995;32;34062;-92
2022/12/07 09:26:20;;;;;;;19.35;12.68;;;;;;;6.38;100.00;100238.03;5512523;32;34611;-89
2022/12/07 09:29:29;;;;;;;17.67;11.82;;;;;;;7.23;100.00;100238.50;5537771;26;34171;-86
2022/12/07 09:32:32;;;;;;;17.70;12.10;;;;;;;6.60;100.00;100235.50;5534640;32;34151;-87
2022/12/07 09:35:35;;;;;;;20.00;12.10;;;;;;;7.08;100.00;100225.00;5527185;32;32431;-87
2022/12/07 09:38:38;;;;;;;16.12;10.95;;;;;;;7.05;100.00;100235.69;5518355;32;34210;-87
2022/12/07 09:41:44;;;;;;;16.85;11.45;;;;;;;7.88;100.00;100232.47;5524632;32;34518;-87
2022/12/07 09:44:46;;;;;;;15.07;10.32;;;;;;;8.99;100.00;100233.97;5530691;32;34161;-87
2022/12/07 09:47:49;;;;;;;16.52;9.95;;;;;;;13.88;100.00;100216.00;5530996;32;33904;-88
2022/12/07 09:50:57;;;;;;;12.57;9.35;;;;;;;15.74;64.07;100216.56;5531651;32;33805;-88
2022/12/07 09:54:00;;;;;;;14.48;9.50;;;;;;;14.86;65.58;100221.06;5527913;32;34155;-87
2022/12/07 09:57:03;;;;;;;13.88;9.57;;;;;;;11.97;75.29;100220.53;5514432;32;34419;-88
2022/12/07 10:00:14;;;;;;;12.98;9.20;;;;;;;10.47;83.00;100216.31;5516156;32;34801;-88
2022/12/07 10:03:17;;;;;;;14.07;9.65;;;;;;;8.74;96.16;100217.41;5521914;32;34114;-88
2022/12/07 10:06:21;;;;;;;15.27;9.30;;;;;;;8.80;96.18;100218.06;5533204;32;34094;-86
2022/12/07 10:09:24;;;;;;;11.20;8.73;;;;;;;8.66;99.39;100216.03;5531644;32;33555;-87
2022/12/07 10:12:27;;;;;;;10.93;8.15;;;;;;;8.31;96.61;100212.19;5513265;32;32822;-88
2022/12/07 10:15:48;;;;;;;10.20;7.72;;;;;;;7.91;99.64;100203.31;5523678;32;35093;-88
2022/12/07 10:18:51;;;;;;;12.10;8.13;;;;;;;7.95;99.00;100205.75;5532307;32;33982;-88
2022/12/07 10:22:14;;;;;;;10.57;7.12;;;;;;;7.96;97.86;100206.63;5516091;32;33722;-88
2022/12/07 10:25:20;;;;;;;10.60;7.37;;;;;;;7.88;99.31;100206.06;5527285;32;35033;-88
2022/12/07 10:28:33;;;;;;;10.88;7.45;;;;;;;8.00;100.00;100205.56;5532520;32;34060;-89
2022/12/07 10:31:45;;;;;;;11.02;7.62;;;;;;;8.30;100.00;100204.34;5517652;32;32730;-88
2022/12/07 10:34:47;;;;;;;9.55;7.35;;;;;;;8.49;96.49;100199.97;5532210;32;34155;-87
2022/12/07 10:38:16;;;;;;;10.35;6.97;;;;;;;8.12;96.29;100198.03;5526092;32;34839;-92
2022/12/07 10:41:19;;;;;;;9.65;7.05;;;;;;;8.13;98.45;100187.41;5511156;32;33260;-87
2022/12/07 10:44:25;;;;;;;10.40;7.07;;;;;;;8.23;93.04;100188.75;5507728;32;32310;-87
2022/12/07 10:47:28;;;;;;;13.20;7.00;;;;;;;7.91;92.84;100180.38;5527911;32;34855;-87
2022/12/07 10:50:46;;;;;;;13.18;7.20;;;;;;;7.05;100.00;100192.59;5524759;32;33938;-87
2022/12/07 10:54:42;;;;;;;10.05;7.07;;;;;;;7.52;100.00;100183.75;5521268;32;32643;-87
2022/12/07 10:58:15;;;;;;;12.88;7.82;;;;;;;7.70;98.58;100184.78;5444128;32;34196;-87
2022/12/07 11:01:35;;;;;;;9.50;6.90;;;;;;;8.09;94.21;100184.03;5449307;32;34068;-87
2022/12/07 11:05:01;;;;;;;11.12;7.57;;;;;;;7.58;96.42;100172.94;5444409;32;33979;-87
2022/12/07 11:08:19;;;;;;;10.05;7.45;;;;;;;7.51;98.88;100182.03;5442859;32;33795;-87
2022/12/07 11:11:41;;;;;;;9.38;7.43;;;;;;;7.68;94.53;100171.66;5435044;32;33428;-88
2022/12/07 11:14:54;;;;;;;10.68;7.70;;;;;;;7.42;98.06;100177.97;5432470;32;32957;-88
2022/12/07 11:18:16;;;;;;;9.65;7.05;;;;;;;7.37;97.78;100179.94;5444685;32;34359;-87
2022/12/07 11:21:45;;;;;;;10.10;7.35;;;;;;;6.44;99.53;100181.62;5441414;32;32365;-87
2022/12/07 11:25:10;;;;;;;10.30;7.70;;;;;;;6.36;100.00;100175.75;5440599;32;32620;-88
2022/12/07 11:28:25;;;;;;;10.88;8.10;;;;;;;6.50;100.00;100176.13;5451069;32;34940;-88
2022/12/07 11:31:45;;;;;;;10.27;7.43;;;;;;;6.51;100.00;100171.72;5494643;32;34389;-88
2022/12/07 11:34:48;;;;;;;10.05;7.70;;;;;;;6.53;100.00;100172.53;5523952;32;33967;-92
2022/12/07 11:37:58;;;;;;;12.63;7.50;;;;;;;6.46;100.00;100174.53;5500701;32;33847;-91
2022/12/07 11:41:14;;;;;;;9.55;7.18;;;;;;;6.26;100.00;100167.31;5513015;32;34508;-88
2022/12/07 11:44:43;;;;;;;12.82;7.57;;;;;;;6.43;100.00;100164.94;5521917;32;34258;-89
2022/12/07 11:48:03;;;;;;;8.45;6.87;;;;;;;6.33;100.00;100172.31;5489735;32;34511;-88
2022/12/07 11:51:11;;;;;;;10.23;7.30;;;;;;;6.38;100.00;100177.41;5516651;32;35196;-88
2022/12/07 11:54:22;;;;;;;10.40;7.53;;;;;;;6.26;100.00;100175.22;5526978;32;34449;-89
2022/12/07 11:57:33;;;;;;;10.05;7.32;;;;;;;6.31;100.00;100170.66;5523580;32;34136;-89
2022/12/07 12:00:37;;;;;;;13.65;7.87;;;;;;;6.28;100.00;100176.06;5525124;32;34246;-88
2022/12/07 12:03:45;;;;;;;9.45;7.15;;;;;;;6.40;100.00;100172.09;5518938;32;34529;-87
2022/12/07 12:06:54;;;;;;;10.32;6.85;;;;;;;5.92;100.00;100164.03;5525890;32;33664;-87
2022/12/07 12:10:05;;;;;;;10.02;6.28;;;;;;;5.89;100.00;100157.09;5521321;32;35347;-88
2022/12/07 12:13:27;;;;;;;12.40;7.17;;;;;;;5.97;100.00;100148.06;5522041;32;34376;-87
2022/12/07 12:17:18;;;;;;;9.38;6.37;;;;;;;6.13;100.00;100145.84;5512254;32;33455;-87
2022/12/07 12:20:36;;;;;;;9.50;6.80;;;;;;;6.10;99.80;100146.78;5514173;32;34393;-87
2022/12/07 12:24:00;;;;;;;9.02;6.65;;;;;;;6.04;100.00;100139.13;5521298;32;33575;-86
2022/12/07 12:27:07;;;;;;;9.75;6.72;;;;;;;5.97;100.00;100132.28;5504052;32;33904;-87
2022/12/07 12:30:45;;;;;;;10.18;6.78;;;;;;;5.82;100.00;100123.16;5530588;32;34049;-87
2022/12/07 12:34:31;;;;;;;11.15;7.80;;;;;;;5.98;100.00;100118.22;5507340;32;32753;-87
2022/12/07 12:37:34;;;;;;;12.95;8.25;;;;;;;6.10;100.00;100120.47;5527433;32;33965;-89
2022/12/07 12:40:41;;;;;;;12.18;8.85;;;;;;;6.20;100.00;100118.34;5520206;32;34867;-88
2022/12/07 12:43:52;;;;;;;13.85;8.07;;;;;;;6.20;100.00;100118.34;5520968;32;34014;-88
2022/12/07 12:47:04;;;;;;;14.40;8.63;;;;;;;6.33;100.00;100113.50;5518705;32;34084;-88
2022/12/07 12:50:28;;;;;;;10.68;7.53;;;;;;;6.25;100.00;100110.28;5503677;32;33255;-87
2022/12/07 12:53:31;;;;;;;10.77;7.80;;;;;;;6.53;100.00;100110.12;5514951;32;32754;-87
2022/12/07 12:56:39;;;;;;;10.85;7.70;;;;;;;6.68;99.12;100116.59;5529706;32;34032;-87
2022/12/07 12:59:51;;;;;;;10.20;7.65;;;;;;;6.51;100.00;100109.34;5529779;32;33821;-87
2022/12/07 13:02:56;;;;;;;10.73;7.07;;;;;;;6.61;100.00;100121.22;5522874;32;34018;-88
2022/12/07 13:06:17;;;;;;;8.38;6.55;;;;;;;6.51;100.00;100122.50;5533867;32;33650;-88
2022/12/07 13:09:29;;;;;;;8.50;6.07;;;;;;;6.01;100.00;100124.25;5526338;32;34704;-88
2022/12/07 13:12:32;;;;;;;9.77;6.80;;;;;;;6.01;97.63;100126.00;5511580;32;33882;-87
2022/12/07 13:15:47;;;;;;;9.20;6.90;;;;;;;6.36;97.13;100133.59;5521718;32;34593;-87
2022/12/07 13:18:51;;;;;;;7.97;6.18;;;;;;;6.11;98.90;100124.81;5512618;32;32314;-87
2022/12/07 13:21:54;;;;;;;9.27;6.18;;;;;;;6.15;95.35;100130.81;5534978;32;34479;-87
2022/12/07 13:25:07;;;;;;;8.43;6.47;;;;;;;5.87;96.44;100140.50;5537470;32;34288;-87
2022/12/07 13:28:18;;;;;;;8.88;6.50;;;;;;;6.14;94.38;100140.50;5523045;32;34899;-87
2022/12/07 13:31:23;;;;;;;8.57;6.25;;;;;;;5.82;95.75;100141.59;5514037;32;33919;-91
2022/12/07 13:34:37;;;;;;;8.95;6.43;;;;;;;5.76;97.54;100140.88;5504905;32;32637;-86
2022/12/07 13:37:39;;;;;;;8.60;6.25;;;;;;;5.76;98.95;100146.16;5531281;32;34916;-86
2022/12/07 13:40:42;;;;;;;16.30;8.30;;;;;;;5.61;99.17;100139.63;5519662;32;33876;-85
2022/12/07 13:44:01;;;;;;;14.90;8.48;;;;;;;5.72;99.56;100138.38;5502290;32;33207;-86
2022/12/07 13:47:11;;;;;;;10.68;7.35;;;;;;;5.53;100.00;100142.50;5502083;32;32991;-86
2022/12/07 13:50:26;;;;;;;13.05;7.87;;;;;;;5.50;100.00;100147.00;5522385;32;34260;-86
2022/12/07 13:53:30;;;;;;;10.48;7.37;;;;;;;5.32;100.00;100157.19;5528550;32;34020;-85
2022/12/07 13:56:35;;;;;;;17.45;8.35;;;;;;;5.38;100.00;100159.63;5529209;32;34334;-86
2022/12/07 13:59:47;;;;;;;13.20;8.40;;;;;;;5.26;100.00;100157.38;5525683;32;33914;-86
2022/12/07 14:02:59;;;;;;;10.35;8.13;;;;;;;5.08;100.00;100158.81;5504106;32;32572;-86
2022/12/07 14:06:15;;;;;;;12.73;8.50;;;;;;;5.09;100.00;100155.28;5526993;32;33455;-87
2022/12/07 14:09:29;;;;;;;11.23;8.20;;;;;;;5.11;100.00;100158.72;5522738;32;34672;-86
2022/12/07 14:12:36;;;;;;;12.82;8.63;;;;;;;5.03;100.00;100152.84;5521099;32;34347;-87
2022/12/07 14:15:38;;;;;;;11.20;8.18;;;;;;;5.03;100.00;100158.09;5524474;32;33013;-86
2022/12/07 14:18:41;;;;;;;12.55;8.65;;;;;;;4.92;100.00;100154.00;5540730;32;33813;-87
2022/12/07 14:21:44;;;;;;;13.13;8.82;;;;;;;4.78;100.00;100158.81;5521671;32;33000;-87
2022/12/07 14:24:47;;;;;;;12.40;8.50;;;;;;;4.68;100.00;100152.97;5522747;32;33862;-87
2022/12/07 14:27:58;;;;;;;13.80;9.40;;;;;;;4.50;100.00;100163.09;5530534;32;34623;-87
2022/12/07 14:31:02;;;;;;;13.70;9.45;;;;;;;4.34;100.00;100160.03;5511716;32;34259;-87
2022/12/07 14:34:04;;;;;;;14.02;9.00;;;;;;;4.26;100.00;100156.75;5518914;32;34240;-87
2022/12/07 14:37:09;;;;;;;16.02;9.43;;;;;;;4.19;100.00;100161.31;5515700;32;33742;-87
2022/12/07 14:40:14;;;;;;;15.00;9.05;;;;;;;4.11;100.00;100155.37;5513865;32;33904;-87
2022/12/07 14:43:19;;;;;;;14.18;9.35;;;;;;;4.00;100.00;100161.78;5512585;32;33846;-87
2022/12/07 14:46:22;;;;;;;12.40;8.85;;;;;;;3.90;100.00;100163.78;5498674;32;33535;-90
2022/12/07 14:49:25;;;;;;;13.18;8.82;;;;;;;4.01;100.00;100175.75;5528051;32;35024;-91
2022/12/07 14:52:36;;;;;;;14.40;9.02;;;;;;;3.88;100.00;100175.22;5516917;32;32603;-88
2022/12/07 14:55:58;;;;;;;15.68;9.13;;;;;;;3.83;100.00;100172.69;5530465;32;35222;-87
2022/12/07 14:59:01;;;;;;;15.35;8.93;;;;;;;3.81;100.00;100176.28;5527552;32;34299;-86
2022/12/07 15:02:06;;;;;;;14.70;9.13;;;;;;;3.69;100.00;100180.94;5518441;32;32449;-87
2022/12/07 15:05:08;;;;;;;16.05;9.23;;;;;;;3.53;100.00;100182.19;5526591;32;33889;-86
2022/12/07 15:08:17;;;;;;;13.43;9.32;;;;;;;3.45;100.00;100179.75;5532375;32;34101;-86
2022/12/07 15:11:20;;;;;;;15.18;9.05;;;;;;;3.43;100.00;100184.16;5530641;32;33980;-86
2022/12/07 15:14:23;;;;;;;15.07;9.52;;;;;;;3.32;100.00;100187.03;5517628;32;33467;-86
2022/12/07 15:17:25;;;;;;;18.23;9.15;;;;;;;3.29;100.00;100182.72;5531244;32;34603;-87
2022/12/07 15:20:34;;;;;;;13.55;8.95;;;;;;;3.15;100.00;100188.28;5533099;32;34051;-87
2022/12/07 15:23:36;;;;;;;16.65;9.73;;;;;;;3.05;100.00;100185.00;5531527;32;34754;-86
2022/12/07 15:26:40;;;;;;;14.65;9.20;;;;;;;2.98;100.00;100188.66;5532937;32;33686;-88
2022/12/07 15:29:42;;;;;;;13.40;8.48;;;;;;;2.92;100.00;100188.78;5537971;32;34256;-87
2022/12/07 15:32:49;;;;;;;15.95;9.35;;;;;;;2.88;100.00;100185.38;5537319;32;34390;-87
2022/12/07 15:35:52;;;;;;;15.15;9.18;;;;;;;3.00;100.00;100192.09;5510514;32;32789;-87
2022/12/07 15:38:56;;;;;;;15.43;9.32;;;;;;;2.96;100.00;100183.44;5516143;32;34160;-88
2022/12/07 15:42:15;;;;;;;14.55;9.00;;;;;;;2.90;100.00;100198.41;5498341;32;33209;-88
2022/12/07 15:45:18;;;;;;;13.75;9.18;;;;;;;2.85;100.00;100200.28;5511775;32;34129;-88
2022/12/07 15:48:20;;;;;;;14.90;9.32;;;;;;;2.78;100.00;100213.50;5499442;32;32402;-88
2022/12/07 15:51:31;;;;;;;15.98;8.73;;;;;;;2.75;100.00;100203.09;5531715;32;34138;-88
2022/12/07 15:54:34;;;;;;;14.23;8.70;;;;;;;2.71;100.00;100213.66;5541309;32;35113;-88
2022/12/07 15:57:38;;;;;;;15.38;9.18;;;;;;;2.76;100.00;100220.53;5533083;32;34066;-88
2022/12/07 16:00:41;;;;;;;16.12;9.30;;;;;;;3.17;100.00;100206.59;5530761;32;34926;-88
2022/12/07 16:03:44;;;;;;;15.35;9.82;;;;;;;3.24;100.00;100214.28;5511011;32;34033;-88
2022/12/07 16:06:47;;;;;;;17.15;10.77;;;;;;;2.98;100.00;100207.00;5505246;32;33284;-88
2022/12/07 16:09:50;;;;;;;16.60;10.77;;;;;;;2.75;100.00;100203.09;5505809;32;32474;-88
2022/12/07 16:12:53;;;;;;;17.98;10.25;;;;;;;2.63;100.00;100209.44;5524826;32;33915;-88
2022/12/07 16:15:57;;;;;;;16.17;9.23;;;;;;;2.51;100.00;100209.69;5515496;32;32670;-88
2022/12/07 16:18:59;;;;;;;15.13;8.98;;;;;;;2.36;100.00;100214.28;5531408;32;34625;-88
2022/12/07 16:22:04;;;;;;;19.12;10.25;;;;;;;2.37;100.00;100210.78;5530603;32;35085;-92
2022/12/07 16:25:06;;;;;;;15.95;9.35;;;;;;;2.36;100.00;100198.56;5530680;32;34036;-92
2022/12/07 16:28:09;;;;;;;17.45;9.35;;;;;;;2.33;100.00;100206.50;5530565;32;35292;-92
2022/12/07 16:31:15;;;;;;;20.80;11.12;;;;;;;2.20;100.00;100211.09;5517313;32;32667;-93
2022/12/07 16:34:18;;;;;;;17.87;10.73;;;;;;;2.43;100.00;100207.19;5530570;32;33746;-89
2022/12/07 16:37:21;;;;;;;19.10;9.40;;;;;;;2.57;100.00;100212.19;5530344;32;33811;-89
2022/12/07 16:40:24;;;;;;;14.68;8.95;;;;;;;2.52;100.00;100206.16;5530213;32;34003;-89
